Terminal Aerodrome Forecast
Issued by NWS Buffalo, NY

Home | Current Version | Previous Version | Text Only | Print | Product List | Glossary On
Versions: 1 2 3 4 5 6 7 8 9 10 11 12 13 14 15 16 17 18 19 20 21 22 23 24 25 26 27 28
000
FTUS41 KBUF 270900 AAA
TAFART
TAF AMD
KART 270909Z 2709/2806 23004KT 6SM HZ VCSH OVC035
     FM271000 23004KT P6SM VCSH BKN040
     FM271300 25006KT P6SM SCT050 SCT100
     FM280300 32005KT P6SM SCT100=

USA.gov is the U.S. government's official web portal to all federal, state and local government web resources and services.